Hovedside
METAR-TAF:

METAR-TAF

Lufthavner :

Nouméa / La Tontouta, Ny-Caledonia

breddegrad: 22-01S, lengdegrad: 166-13E, høyde over havet: 16 m

Gjeldene værobservasjon

Denne rapporten ble laget for 21 minutter siden, klokken 17:30 UTC
Vind 5 kt fra Øst, skiftende mellom Nordøst og Sørøst
Temperatur 21°C
Luftfuktighet 83%
Trykk 1013 hPa
Sikt 10 km eller mer
ingen skyer under 1500 m og ingen bygeskyer

METAR: NWWW 211730Z AUTO 09005KT 040V130 CAVOK 21/18 Q1013 NOSIG

Tid: 04:51 (17:51 UTC)

Varsel

Denne rapporten ble laget for 51 minutter siden, klokken 17:00 UTC
Varsel gyldig fra 21. klokken 18 UTC til 22. klokken 18 UTC
Vind 2 kt fra skiftende retning
Sikt 10 km eller mer
Få skyer i en høyde av 4500 ft

TAF: NWWW 211700Z 2118/2218 VRB02KT 9999 FEW045

Værobservasjoner og værvarsel for over 4000 flyplasser (METAR- og TAF-rapporter).

Tilgjengelige stasjoner er representert av de røde og gule prikkene på kartet.

Hold musepekeren over prikken for å se navnet på stasjonen.

Klikk så for å se værobservasjoner og -varsler.

For å forandre kartet kan du klikke på den grønne knappen med svart kryss for å zoome inn, på den grønne knappen med strek for å zoome ut, eller på de grønne pilene for å se tilstøtende kart.


METAR-TAF: